Time;durP1;ratioP1;P1;durP2;ratioP2;P2;SDS_P1;SDS_P2;PMS_P1;PMS_P2;Temp;Humidity;BMP_temperature;BMP_pressure;BME280_temperature;BME280_humidity;BME280_pressure;Samples;Min_cycle;Max_cycle;Signal;HPM_P1;HPM_P2
2021/09/16 00:01:37;;;;;;;2.83;2.63;;;;;;;19.35;79.22;100367.72;5072266;28;20024;-44
2021/09/16 00:04:04;;;;;;;2.95;2.60;;;;;;;19.35;79.24;100373.91;5071986;28;20103;-44
2021/09/16 00:06:30;;;;;;;2.88;2.67;;;;;;;19.36;79.16;100372.97;5072465;28;20016;-42
2021/09/16 00:08:56;;;;;;;2.80;2.58;;;;;;;19.35;79.15;100379.25;5072630;28;20517;-44
2021/09/16 00:11:22;;;;;;;2.70;2.50;;;;;;;19.35;79.12;100384.59;5071757;28;20036;-42
2021/09/16 00:13:48;;;;;;;2.90;2.70;;;;;;;19.35;79.13;100379.25;5071290;28;20098;-42
2021/09/16 00:16:14;;;;;;;3.17;2.60;;;;;;;19.34;79.02;100388.22;5072113;28;20036;-42
2021/09/16 00:18:40;;;;;;;2.90;2.70;;;;;;;19.35;78.98;100389.09;5072985;28;20493;-42
2021/09/16 00:21:06;;;;;;;2.53;2.33;;;;;;;19.34;79.08;100390.06;5070346;28;20447;-43
2021/09/16 00:23:32;;;;;;;2.75;2.55;;;;;;;19.34;78.94;100393.56;5067600;28;20062;-43
2021/09/16 00:25:58;;;;;;;2.92;2.42;;;;;;;19.34;79.08;100398.06;5076083;28;20035;-44
2021/09/16 00:28:24;;;;;;;2.78;2.58;;;;;;;19.34;79.00;100393.56;5072095;28;20020;-43
2021/09/16 00:30:50;;;;;;;3.00;2.80;;;;;;;19.34;78.88;100409.63;5071877;28;20024;-43
2021/09/16 00:33:16;;;;;;;2.65;2.45;;;;;;;19.34;78.95;100414.97;5071318;28;20504;-43
2021/09/16 00:35:42;;;;;;;4.82;3.72;;;;;;;19.34;79.37;100409.63;5071392;28;20046;-43
2021/09/16 00:38:08;;;;;;;5.57;4.45;;;;;;;19.33;79.43;100407.91;5071545;28;20043;-42
2021/09/16 00:40:34;;;;;;;5.60;4.15;;;;;;;19.31;79.52;100415.13;5071173;28;20030;-44
2021/09/16 00:43:00;;;;;;;5.35;4.85;;;;;;;19.32;79.36;100411.53;5071258;28;20531;-44
2021/09/16 00:49:00;;;;;;;6.95;6.13;;;;;;;19.31;79.58;100417.78;5058192;28;20089;-44
2021/09/16 00:51:26;;;;;;;7.03;6.32;;;;;;;19.29;79.41;100418.81;5068092;28;20107;-44
2021/09/16 00:53:54;;;;;;;6.75;6.15;;;;;;;19.29;79.62;100418.81;5070245;28;20054;-44
2021/09/16 00:56:21;;;;;;;8.75;7.88;;;;;;;19.31;79.51;100422.28;5070098;28;20028;-44
2021/09/16 00:58:47;;;;;;;8.13;7.25;;;;;;;19.29;79.32;100427.72;5068854;28;20033;-44
2021/09/16 01:01:13;;;;;;;9.23;8.15;;;;;;;19.29;79.44;100416.13;5069178;28;20027;-45
2021/09/16 01:03:39;;;;;;;9.25;8.23;;;;;;;19.29;79.44;100424.16;5070541;28;20024;-44
2021/09/16 01:06:06;;;;;;;9.35;7.88;;;;;;;19.27;79.25;100421.56;5052811;28;20477;-44
2021/09/16 01:08:34;;;;;;;10.40;8.02;;;;;;;19.28;79.36;100425.09;5070280;28;20024;-45
2021/09/16 01:11:00;;;;;;;9.85;8.15;;;;;;;19.27;79.29;100426.06;5065160;28;20371;-44
2021/09/16 01:13:26;;;;;;;10.00;8.35;;;;;;;19.27;79.33;100424.22;5069732;28;20028;-44
2021/09/16 01:15:51;;;;;;;9.80;7.22;;;;;;;19.26;79.20;100427.84;5052056;28;20471;-44
2021/09/16 01:18:17;;;;;;;9.50;8.07;;;;;;;19.28;79.23;100431.34;5067955;28;20024;-44
2021/09/16 01:20:43;;;;;;;9.48;8.40;;;;;;;19.27;79.08;100434.06;5070801;28;20024;-44
2021/09/16 01:23:09;;;;;;;9.50;8.23;;;;;;;19.25;78.92;100431.47;5070122;28;20032;-44
2021/09/16 01:25:35;;;;;;;9.68;8.35;;;;;;;19.26;79.16;100435.88;5070125;28;20032;-44
2021/09/16 01:28:02;;;;;;;9.02;8.10;;;;;;;19.25;79.14;100431.47;5051205;28;20027;-44
2021/09/16 01:30:29;;;;;;;11.52;8.98;;;;;;;19.25;79.14;100435.94;5051824;28;20074;-44
2021/09/16 01:32:55;;;;;;;10.27;8.63;;;;;;;19.25;78.95;100434.16;5070164;28;20116;-44
2021/09/16 01:35:22;;;;;;;10.75;9.57;;;;;;;19.25;79.10;100435.94;5070371;28;20036;-44
2021/09/16 01:37:48;;;;;;;9.85;8.85;;;;;;;19.27;78.69;100439.44;5069964;28;20032;-44
2021/09/16 01:40:14;;;;;;;10.27;8.75;;;;;;;19.25;78.79;100434.16;5070069;28;20028;-44
2021/09/16 01:42:45;;;;;;;10.45;9.27;;;;;;;19.25;78.71;100436.81;5071294;28;20119;-44
2021/09/16 01:45:12;;;;;;;11.43;8.60;;;;;;;19.24;78.74;100440.41;5051757;28;20028;-44
2021/09/16 01:47:38;;;;;;;10.70;9.05;;;;;;;19.24;78.87;100440.41;5053878;28;20089;-44
2021/09/16 01:50:05;;;;;;;9.27;8.38;;;;;;;19.23;78.55;100444.91;5051906;28;20020;-44
2021/09/16 01:52:30;;;;;;;9.88;8.98;;;;;;;19.23;78.63;100439.56;5070029;28;20029;-44
2021/09/16 01:54:56;;;;;;;9.70;8.70;;;;;;;19.24;78.53;100437.75;5072034;28;20043;-44
2021/09/16 01:57:22;;;;;;;11.73;9.52;;;;;;;19.23;78.61;100442.25;5069413;28;20029;-45
2021/09/16 01:59:48;;;;;;;9.38;8.45;;;;;;;19.23;78.56;100439.56;5070297;28;20474;-44
2021/09/16 02:02:14;;;;;;;8.85;7.97;;;;;;;19.22;78.60;100442.31;5071367;28;20028;-44
2021/09/16 02:04:39;;;;;;;11.25;8.63;;;;;;;19.22;78.50;100445.00;5069718;28;20115;-44
2021/09/16 02:07:05;;;;;;;11.95;8.90;;;;;;;19.22;78.50;100447.66;5069866;28;20070;-44
2021/09/16 02:09:31;;;;;;;9.35;8.45;;;;;;;19.22;78.54;100443.19;5069730;28;20031;-44
2021/09/16 02:11:57;;;;;;;11.18;9.60;;;;;;;19.22;78.64;100436.97;5070164;28;20489;-45
2021/09/16 02:14:23;;;;;;;9.80;8.80;;;;;;;19.21;78.58;100435.25;5071380;28;20134;-44
2021/09/16 02:16:49;;;;;;;12.20;10.20;;;;;;;19.20;78.55;100433.50;5068562;28;20024;-44
2021/09/16 02:19:14;;;;;;;12.02;10.65;;;;;;;19.21;78.71;100440.59;5070266;28;20059;-44
2021/09/16 02:21:40;;;;;;;11.23;9.43;;;;;;;19.21;78.33;100440.59;5033358;28;20039;-44
2021/09/16 02:24:06;;;;;;;9.40;8.50;;;;;;;19.21;78.35;100436.09;5068545;28;20021;-44
2021/09/16 02:26:32;;;;;;;9.80;8.60;;;;;;;19.20;78.28;100445.06;5068244;28;20074;-44
2021/09/16 02:28:58;;;;;;;9.95;8.95;;;;;;;19.20;78.49;100449.53;5070861;28;20024;-44
2021/09/16 02:31:24;;;;;;;9.82;8.82;;;;;;;19.20;78.44;100445.06;5072666;28;20037;-44
2021/09/16 02:33:49;;;;;;;10.35;8.85;;;;;;;19.19;78.43;100443.34;5069912;28;20394;-44
2021/09/16 02:36:15;;;;;;;10.45;9.23;;;;;;;19.19;78.41;100438.00;5069494;28;20023;-44
2021/09/16 02:38:41;;;;;;;10.20;8.32;;;;;;;19.18;78.28;100452.28;5069169;28;20547;-44
2021/09/16 02:41:07;;;;;;;10.40;9.18;;;;;;;19.18;78.30;100448.75;5070181;28;20025;-44
2021/09/16 02:43:33;;;;;;;8.85;8.05;;;;;;;19.19;78.21;100442.47;5069456;28;20572;-44
2021/09/16 02:45:59;;;;;;;9.07;8.05;;;;;;;19.18;78.35;100446.09;5068784;28;20028;-44
2021/09/16 02:48:25;;;;;;;10.35;9.30;;;;;;;19.18;78.26;100443.41;5069714;28;20071;-44
2021/09/16 02:50:50;;;;;;;9.98;8.77;;;;;;;19.18;78.28;100443.41;5069316;28;20551;-44
2021/09/16 02:53:16;;;;;;;9.93;8.88;;;;;;;19.16;78.37;100447.94;5054259;28;20119;-43
2021/09/16 02:55:43;;;;;;;9.18;8.25;;;;;;;19.16;78.25;100447.94;5069666;28;20392;-43
2021/09/16 02:58:09;;;;;;;11.02;9.68;;;;;;;19.16;78.24;100454.19;5068458;28;20029;-46
2021/09/16 03:00:35;;;;;;;9.88;8.82;;;;;;;19.16;78.25;100458.66;5065077;28;20043;-43
2021/09/16 03:03:01;;;;;;;9.85;8.95;;;;;;;19.16;78.27;100455.97;5068898;28;20024;-43
2021/09/16 03:05:27;;;;;;;10.70;9.32;;;;;;;19.16;78.13;100447.94;5069650;28;20033;-44
2021/09/16 03:07:53;;;;;;;8.38;7.57;;;;;;;19.16;78.10;100458.66;5072719;28;20145;-45
2021/09/16 03:10:19;;;;;;;9.38;8.10;;;;;;;19.15;78.25;100455.13;5070071;28;20502;-42
2021/09/16 03:12:45;;;;;;;9.18;8.23;;;;;;;19.15;78.19;100455.13;5069117;28;20103;-44
2021/09/16 03:15:12;;;;;;;10.48;8.63;;;;;;;19.15;78.17;100463.16;5069239;28;20127;-43
2021/09/16 03:17:39;;;;;;;9.82;8.50;;;;;;;19.14;78.06;100463.22;5068853;28;20541;-43
2021/09/16 03:20:05;;;;;;;9.80;8.07;;;;;;;19.15;78.15;100467.63;5068988;28;20028;-43
2021/09/16 03:22:31;;;;;;;9.32;8.43;;;;;;;19.15;78.19;100472.97;5068562;28;20052;-43
2021/09/16 03:24:57;;;;;;;11.88;9.18;;;;;;;19.16;78.09;100477.34;5068926;28;20016;-43
2021/09/16 03:27:23;;;;;;;9.88;8.88;;;;;;;19.14;78.14;100465.88;5070081;28;20040;-45
2021/09/16 03:29:49;;;;;;;10.93;9.48;;;;;;;19.13;77.98;100470.34;5068698;28;20031;-44
2021/09/16 03:32:14;;;;;;;10.15;9.05;;;;;;;19.13;78.00;100472.16;5070304;28;20031;-44
2021/09/16 03:34:40;;;;;;;8.77;7.82;;;;;;;19.13;78.06;100480.16;5051683;28;20031;-42
2021/09/16 03:37:06;;;;;;;9.38;8.07;;;;;;;19.13;78.07;100477.50;5071297;28;20028;-43
2021/09/16 03:39:32;;;;;;;9.82;8.82;;;;;;;19.12;78.00;100484.66;5072299;28;20035;-42
2021/09/16 03:41:58;;;;;;;9.25;8.35;;;;;;;19.13;77.98;100486.41;5072886;28;20060;-45
2021/09/16 03:44:24;;;;;;;8.95;8.05;;;;;;;19.10;78.09;100487.41;5074578;28;20028;-43
2021/09/16 03:46:53;;;;;;;9.65;8.63;;;;;;;19.12;78.00;100491.81;5071166;28;20052;-43
2021/09/16 03:49:19;;;;;;;8.43;7.63;;;;;;;19.10;77.97;100484.75;5064605;28;20024;-43
2021/09/16 03:51:45;;;;;;;9.32;8.32;;;;;;;19.11;78.03;100496.31;5067012;28;20498;-44
2021/09/16 03:54:11;;;;;;;8.88;7.68;;;;;;;19.10;77.99;100486.53;5068059;28;20021;-44
2021/09/16 03:56:38;;;;;;;9.77;8.80;;;;;;;19.09;77.87;100490.16;5072631;28;20024;-44
2021/09/16 03:59:03;;;;;;;9.25;7.97;;;;;;;19.10;78.00;100487.41;5071777;28;20020;-44
2021/09/16 04:01:30;;;;;;;9.40;8.48;;;;;;;19.09;78.04;100488.38;5071038;28;20043;-42
2021/09/16 04:03:55;;;;;;;11.65;9.23;;;;;;;19.09;78.11;100485.69;5063129;28;20016;-43
2021/09/16 04:06:21;;;;;;;9.75;8.65;;;;;;;19.09;77.92;100488.38;5069032;28;20032;-44
2021/09/16 04:08:47;;;;;;;9.05;7.97;;;;;;;19.08;78.01;100483.94;5071256;28;20478;-43
2021/09/16 04:11:13;;;;;;;9.50;8.50;;;;;;;19.08;77.95;100488.44;5069729;28;20028;-44
2021/09/16 04:13:39;;;;;;;8.70;7.90;;;;;;;19.08;77.98;100494.63;5071114;28;20024;-43
2021/09/16 04:16:05;;;;;;;9.20;8.30;;;;;;;19.07;78.02;100489.34;5069191;28;20119;-43
2021/09/16 04:18:31;;;;;;;9.30;8.35;;;;;;;19.06;78.04;100493.84;5071120;28;20054;-43
2021/09/16 04:20:57;;;;;;;9.25;8.30;;;;;;;19.07;77.87;100489.34;5068062;28;20039;-46
2021/09/16 04:23:23;;;;;;;8.70;7.80;;;;;;;19.06;77.83;100500.97;5070512;28;20029;-43
2021/09/16 04:25:48;;;;;;;8.48;7.15;;;;;;;19.06;77.98;100501.88;5070995;28;20367;-44
2021/09/16 04:28:14;;;;;;;9.23;7.85;;;;;;;19.06;77.77;100496.53;5070065;28;20149;-43
2021/09/16 04:30:40;;;;;;;8.68;7.88;;;;;;;19.06;77.85;100499.19;5071463;28;20036;-43
2021/09/16 04:33:06;;;;;;;8.63;7.72;;;;;;;19.05;77.78;100505.47;5069593;28;20020;-43
2021/09/16 04:35:32;;;;;;;8.00;7.13;;;;;;;19.07;77.83;100506.25;5068729;28;20020;-44
2021/09/16 04:37:58;;;;;;;8.07;7.15;;;;;;;19.04;77.94;100498.34;5070791;28;20027;-43
2021/09/16 04:40:24;;;;;;;7.25;6.50;;;;;;;19.05;77.89;100499.22;5052565;28;20389;-44
2021/09/16 04:42:49;;;;;;;7.88;7.05;;;;;;;19.04;77.90;100505.53;5069455;28;20128;-43
2021/09/16 04:45:15;;;;;;;7.63;6.85;;;;;;;19.04;77.95;100503.69;5067283;28;20035;-43
2021/09/16 04:47:41;;;;;;;6.88;6.18;;;;;;;19.04;77.72;100505.53;5070816;28;20035;-42
2021/09/16 04:50:12;;;;;;;6.75;6.15;;;;;;;19.04;77.78;100506.38;5070782;28;20614;-43
2021/09/16 04:52:39;;;;;;;6.18;5.57;;;;;;;19.04;77.76;100513.53;5069629;28;20520;-43
2021/09/16 04:55:06;;;;;;;7.40;6.60;;;;;;;19.03;77.81;100506.44;5071502;28;20108;-44
2021/09/16 04:57:32;;;;;;;7.63;6.43;;;;;;;19.02;77.86;100505.59;5069320;28;20048;-43
2021/09/16 04:59:58;;;;;;;6.45;5.85;;;;;;;19.03;77.78;100514.47;5068331;28;20048;-44
2021/09/16 05:02:24;;;;;;;6.60;6.00;;;;;;;19.01;77.80;100514.56;5069704;28;20114;-44
2021/09/16 05:04:50;;;;;;;5.13;4.72;;;;;;;19.02;77.73;100513.63;5050640;28;20495;-44
2021/09/16 05:07:16;;;;;;;6.13;5.53;;;;;;;19.02;77.61;100515.41;5068954;28;20013;-44
2021/09/16 05:09:42;;;;;;;5.90;5.30;;;;;;;19.02;77.83;100528.78;5071202;28;20032;-44
2021/09/16 05:12:08;;;;;;;6.90;5.57;;;;;;;19.01;77.77;100535.94;5069329;28;20020;-44
2021/09/16 05:14:33;;;;;;;5.63;5.20;;;;;;;19.01;77.46;100541.28;5069198;28;20028;-44
2021/09/16 05:16:59;;;;;;;5.72;5.22;;;;;;;19.01;77.75;100541.28;5071145;28;20016;-43
2021/09/16 05:19:24;;;;;;;5.90;5.18;;;;;;;19.01;77.75;100535.94;5069466;28;20013;-43
2021/09/16 05:21:49;;;;;;;5.72;5.18;;;;;;;19.00;77.74;100544.88;5070621;28;20023;-43
2021/09/16 05:24:18;;;;;;;5.53;5.03;;;;;;;19.00;77.73;100544.03;5052624;28;20490;-42
2021/09/16 05:26:44;;;;;;;5.18;4.68;;;;;;;18.99;77.78;100548.50;5071137;28;20397;-43
2021/09/16 05:29:10;;;;;;;5.30;4.90;;;;;;;18.97;77.70;100542.34;5069967;28;20020;-46
2021/09/16 05:31:35;;;;;;;4.68;4.28;;;;;;;18.98;77.50;100542.28;5072472;28;20028;-43
2021/09/16 05:34:00;;;;;;;5.38;4.88;;;;;;;18.97;77.62;100550.34;5052571;28;20493;-46
2021/09/16 05:36:26;;;;;;;5.45;4.95;;;;;;;18.98;77.64;100552.13;5069117;28;20032;-43
2021/09/16 05:38:51;;;;;;;4.60;4.20;;;;;;;18.96;77.58;100541.50;5070687;28;20024;-43
2021/09/16 05:41:16;;;;;;;4.25;3.95;;;;;;;18.97;77.66;100550.34;5070002;28;20080;-42
2021/09/16 05:43:42;;;;;;;4.90;4.45;;;;;;;18.97;77.71;100551.22;5068419;28;20031;-43
2021/09/16 05:46:07;;;;;;;4.50;4.13;;;;;;;18.95;77.58;100549.56;5070316;28;20604;-46
2021/09/16 05:48:34;;;;;;;6.50;4.97;;;;;;;18.64;77.17;100559.84;5051224;28;20041;-42
2021/09/16 05:50:59;;;;;;;6.90;5.88;;;;;;;18.69;77.61;100562.31;5070726;28;20090;-42
2021/09/16 05:53:24;;;;;;;7.22;5.72;;;;;;;18.77;77.31;100564.66;5051795;28;20462;-42
2021/09/16 05:55:50;;;;;;;6.63;6.03;;;;;;;18.81;77.32;100571.59;5070274;28;20032;-45
2021/09/16 05:58:15;;;;;;;7.60;6.32;;;;;;;18.82;77.16;100570.66;5065921;28;20370;-42
2021/09/16 06:00:40;;;;;;;9.63;6.50;;;;;;;18.83;77.20;100570.56;5070029;28;20046;-42
2021/09/16 06:03:06;;;;;;;7.70;6.22;;;;;;;18.85;77.13;100574.03;5067871;28;20032;-46
2021/09/16 06:05:31;;;;;;;6.22;5.63;;;;;;;18.83;77.18;100570.56;5068183;28;20111;-43
2021/09/16 06:07:56;;;;;;;7.10;5.47;;;;;;;18.83;77.33;100570.56;5066817;28;20029;-45
2021/09/16 06:10:22;;;;;;;6.50;5.32;;;;;;;18.87;77.05;100562.44;5070275;28;20032;-42
2021/09/16 06:12:47;;;;;;;5.65;4.85;;;;;;;18.86;77.27;100569.56;5069408;28;20449;-45
2021/09/16 06:15:12;;;;;;;7.68;5.90;;;;;;;18.85;77.11;100571.34;5069301;28;20167;-44
2021/09/16 06:17:37;;;;;;;5.15;4.55;;;;;;;18.85;77.18;100567.84;5069695;28;20390;-43
2021/09/16 06:20:05;;;;;;;5.30;4.80;;;;;;;18.82;77.21;100568.84;5066977;28;20501;-42
2021/09/16 06:22:30;;;;;;;5.10;4.53;;;;;;;18.83;77.17;100570.56;5068829;28;20016;-43
2021/09/16 06:24:55;;;;;;;5.07;4.60;;;;;;;18.84;77.05;100569.63;5072607;28;20596;-43
2021/09/16 06:27:39;;;;;;;5.40;4.90;;;;;;;18.82;77.34;100563.50;5069023;28;20037;-45
2021/09/16 06:30:05;;;;;;;4.80;4.40;;;;;;;18.82;77.34;100555.50;5066141;28;20062;-43
2021/09/16 06:32:33;;;;;;;4.80;4.30;;;;;;;18.84;77.16;100572.31;5052410;28;20564;-43
2021/09/16 06:34:58;;;;;;;5.03;4.63;;;;;;;18.82;77.46;100563.50;5069842;28;20029;-44
2021/09/16 06:37:23;;;;;;;4.97;4.50;;;;;;;18.83;77.24;100575.91;5068308;28;20481;-46
2021/09/16 06:39:49;;;;;;;5.40;4.28;;;;;;;18.83;77.28;100578.59;5070153;28;20065;-42
2021/09/16 06:42:14;;;;;;;4.90;4.32;;;;;;;18.82;77.23;100587.56;5069409;28;20025;-42
2021/09/16 06:44:39;;;;;;;5.05;4.53;;;;;;;18.83;77.32;100586.59;5069200;28;20067;-44
2021/09/16 06:47:05;;;;;;;4.70;4.30;;;;;;;18.82;77.33;100587.56;5067705;28;20492;-43
2021/09/16 06:49:36;;;;;;;4.95;4.20;;;;;;;18.82;77.31;100595.56;5068989;28;20024;-43
2021/09/16 06:52:02;;;;;;;4.95;4.45;;;;;;;18.84;77.16;100599.03;5068664;28;20036;-47
2021/09/16 06:54:27;;;;;;;4.82;4.43;;;;;;;18.82;77.29;100603.59;5069862;28;20033;-42
2021/09/16 06:56:53;;;;;;;4.30;3.70;;;;;;;18.82;77.36;100600.91;5069435;28;20028;-42
2021/09/16 06:59:18;;;;;;;4.75;4.25;;;;;;;18.83;77.18;100607.09;5066627;28;20028;-44
2021/09/16 07:01:43;;;;;;;4.30;3.90;;;;;;;18.82;77.25;100610.72;5069614;28;20059;-42
2021/09/16 07:04:09;;;;;;;4.55;4.15;;;;;;;18.81;77.33;100601.81;5052880;28;20078;-44
2021/09/16 07:06:34;;;;;;;6.60;4.82;;;;;;;18.80;77.26;100599.22;5068910;28;20024;-48
2021/09/16 07:08:59;;;;;;;5.35;4.32;;;;;;;18.77;77.42;100592.22;5055821;28;20025;-42
2021/09/16 07:11:25;;;;;;;5.10;4.55;;;;;;;18.79;77.20;100606.38;5073100;28;20012;-42
2021/09/16 07:13:50;;;;;;;4.80;4.38;;;;;;;18.81;77.32;100612.50;5072662;28;20087;-43
2021/09/16 07:16:15;;;;;;;5.50;5.00;;;;;;;18.81;77.18;100614.34;5072844;28;20036;-42
2021/09/16 07:18:40;;;;;;;6.10;4.72;;;;;;;18.76;77.14;100613.66;5072198;28;20074;-44
2021/09/16 07:21:06;;;;;;;7.32;5.25;;;;;;;18.75;77.16;100615.47;5071457;28;20025;-48
2021/09/16 07:23:31;;;;;;;5.38;4.88;;;;;;;18.75;77.25;100617.28;5071215;28;20044;-44
2021/09/16 07:25:56;;;;;;;4.75;4.35;;;;;;;18.74;76.95;100623.56;5072454;28;20032;-43
2021/09/16 07:28:22;;;;;;;4.95;4.45;;;;;;;18.74;77.16;100624.41;5071303;28;20472;-42
2021/09/16 07:30:47;;;;;;;5.20;4.70;;;;;;;18.73;76.83;100633.38;5072587;28;20024;-44
2021/09/16 07:33:14;;;;;;;4.90;4.22;;;;;;;18.70;76.57;100633.50;5072203;28;20675;-43
2021/09/16 07:35:39;;;;;;;5.25;4.75;;;;;;;18.70;76.87;100646.84;5071958;28;20038;-42
2021/09/16 07:38:05;;;;;;;3.92;3.55;;;;;;;18.69;76.39;100639.78;5071187;28;20029;-43
2021/09/16 07:40:31;;;;;;;6.70;2.60;;;;;;;18.41;73.76;100636.50;5072423;28;20470;-45
2021/09/16 07:42:56;;;;;;;5.72;2.00;;;;;;;18.07;73.26;100638.75;5056445;28;20032;-42
2021/09/16 07:45:22;;;;;;;2.72;1.35;;;;;;;17.99;73.52;100643.53;5054102;28;20024;-42
2021/09/16 07:47:47;;;;;;;2.80;1.52;;;;;;;17.94;73.17;100641.06;5071884;28;20016;-43
2021/09/16 07:50:13;;;;;;;4.72;1.95;;;;;;;17.91;72.70;100625.16;5071101;28;20636;-42
2021/09/16 07:52:38;;;;;;;3.50;1.20;;;;;;;17.85;72.51;100624.56;5071992;28;20041;-44
2021/09/16 07:55:04;;;;;;;3.70;1.50;;;;;;;17.77;71.53;100631.06;5072207;28;20017;-42
2021/09/16 07:57:29;;;;;;;3.53;1.58;;;;;;;17.83;72.02;100646.84;5072097;28;20031;-44
2021/09/16 07:59:54;;;;;;;3.63;1.25;;;;;;;17.83;71.49;100646.84;5071376;28;20486;-46
2021/09/16 08:02:20;;;;;;;4.40;0.95;;;;;;;17.78;71.48;100640.78;5072234;28;20032;-43
2021/09/16 08:04:45;;;;;;;3.67;1.50;;;;;;;17.80;71.06;100649.63;5072379;28;20413;-43
2021/09/16 08:07:10;;;;;;;1.23;1.00;;;;;;;17.80;71.07;100664.75;5072757;28;20059;-44
2021/09/16 08:09:35;;;;;;;2.97;1.23;;;;;;;17.76;71.13;100641.78;5071401;28;20046;-46
2021/09/16 08:12:01;;;;;;;2.00;1.20;;;;;;;17.82;71.20;100650.44;5071018;28;20555;-43
2021/09/16 08:14:27;;;;;;;3.72;1.85;;;;;;;17.87;70.90;100649.38;5061925;28;20060;-43
2021/09/16 08:16:52;;;;;;;1.30;1.08;;;;;;;17.77;71.10;100644.41;5069539;28;20029;-43
2021/09/16 08:19:19;;;;;;;2.72;1.30;;;;;;;17.76;70.87;100652.47;5070558;28;20068;-42
2021/09/16 08:21:44;;;;;;;2.72;1.33;;;;;;;17.75;71.42;100650.72;5051430;28;20025;-43
2021/09/16 08:24:10;;;;;;;3.55;1.30;;;;;;;17.78;71.46;100650.63;5072118;28;20081;-42
2021/09/16 08:26:35;;;;;;;3.22;1.35;;;;;;;17.82;71.34;100646.91;5053287;28;20087;-46
2021/09/16 08:29:02;;;;;;;3.35;1.38;;;;;;;17.83;71.29;100651.28;5072203;28;20027;-42
2021/09/16 08:31:27;;;;;;;1.60;1.33;;;;;;;17.76;71.12;100650.69;5071447;28;20423;-42
2021/09/16 08:33:53;;;;;;;1.67;1.30;;;;;;;17.78;71.51;100656.78;5070978;28;20039;-43
2021/09/16 08:36:18;;;;;;;2.97;1.80;;;;;;;17.81;71.72;100647.84;5057992;28;20030;-43
2021/09/16 08:38:44;;;;;;;3.70;1.50;;;;;;;17.80;71.53;100659.41;5071613;28;20020;-42
2021/09/16 08:41:09;;;;;;;4.70;1.90;;;;;;;17.78;71.76;100653.28;5071467;28;20509;-42
2021/09/16 08:43:35;;;;;;;2.20;1.45;;;;;;;17.77;71.70;100654.22;5054139;28;20476;-42
2021/09/16 08:46:03;;;;;;;2.75;1.30;;;;;;;17.81;72.04;100646.00;5066873;28;20413;-42
2021/09/16 08:48:28;;;;;;;6.25;1.50;;;;;;;17.77;72.03;100654.22;5053219;28;20055;-43
2021/09/16 08:50:54;;;;;;;5.72;1.90;;;;;;;17.78;71.99;100656.78;5072906;28;20462;-43
2021/09/16 08:53:30;;;;;;;2.58;1.25;;;;;;;17.72;71.61;100656.19;5037143;28;20036;-43
2021/09/16 08:55:56;;;;;;;1.67;1.58;;;;;;;17.73;71.49;100661.47;5068744;28;20389;-43
2021/09/16 08:58:27;;;;;;;1.90;1.15;;;;;;;17.72;72.20;100661.50;5067089;28;20123;-44
2021/09/16 09:00:53;;;;;;;1.45;1.30;;;;;;;17.71;72.16;100660.66;5051133;28;20028;-44
2021/09/16 09:03:18;;;;;;;4.55;1.60;;;;;;;17.76;72.34;100660.47;5067210;28;20089;-42
2021/09/16 09:05:44;;;;;;;2.88;1.45;;;;;;;17.70;72.33;100664.25;5070305;28;20028;-42
2021/09/16 09:08:11;;;;;;;2.78;1.50;;;;;;;17.62;72.03;100663.69;5052844;28;20477;-44
2021/09/16 09:10:42;;;;;;;3.28;1.90;;;;;;;17.65;72.73;100661.78;5036984;28;20032;-42
2021/09/16 09:13:09;;;;;;;;;;;;;;;17.64;72.43;100661.84;5069354;28;20020;-45
2021/09/16 09:15:36;;;;;;;4.63;1.80;;;;;;;17.65;72.55;100655.56;5070920;28;19978;-42
2021/09/16 09:18:09;;;;;;;2.35;2.10;;;;;;;17.73;72.35;100653.47;5068259;28;20032;-47
2021/09/16 09:20:56;;;;;;;2.30;1.50;;;;;;;17.76;72.50;100648.00;5070251;28;20028;-43
2021/09/16 09:23:35;;;;;;;2.40;1.60;;;;;;;17.78;72.42;100651.47;5068873;28;20367;-43
2021/09/16 09:26:29;;;;;;;2.67;1.60;;;;;;;17.80;72.06;100656.75;5069356;28;20070;-42
2021/09/16 09:29:09;;;;;;;3.13;1.60;;;;;;;17.76;72.35;100647.13;5066905;28;20799;-43
2021/09/16 09:31:36;;;;;;;3.15;1.90;;;;;;;17.79;72.34;100653.22;5072225;28;20839;-43
2021/09/16 09:34:35;;;;;;;3.53;2.05;;;;;;;17.78;72.22;100650.63;5070188;28;20025;-42
2021/09/16 09:37:14;;;;;;;2.03;1.83;;;;;;;17.80;72.26;100654.06;5038058;28;20036;-42
2021/09/16 09:39:42;;;;;;;3.50;2.15;;;;;;;17.77;72.19;100655.06;5064765;28;20013;-42
2021/09/16 09:42:28;;;;;;;1.80;1.70;;;;;;;17.81;72.40;100648.69;5071071;28;20021;-42
2021/09/16 09:45:06;;;;;;;3.20;2.00;;;;;;;17.90;73.20;100655.44;5066953;28;20016;-41
2021/09/16 09:47:40;;;;;;;3.58;2.17;;;;;;;17.96;72.67;100657.00;5070198;28;20020;-42
2021/09/16 09:50:17;;;;;;;2.42;2.25;;;;;;;17.94;72.07;100659.72;5068152;28;20394;-42
2021/09/16 09:52:43;;;;;;;3.38;2.20;;;;;;;17.93;72.87;100663.34;5069650;28;20029;-42
2021/09/16 09:55:17;;;;;;;3.20;1.65;;;;;;;18.04;72.71;100668.22;5066764;28;20926;-44
2021/09/16 09:57:44;;;;;;;4.03;2.15;;;;;;;18.11;72.66;100665.34;5068338;28;20056;-44
2021/09/16 10:00:12;;;;;;;3.28;2.05;;;;;;;18.16;72.60;100671.34;5070165;28;20028;-44
2021/09/16 10:02:50;;;;;;;4.65;2.13;;;;;;;18.17;72.51;100671.31;5069116;28;20040;-49
2021/09/16 10:05:28;;;;;;;4.07;2.17;;;;;;;18.19;72.53;100664.13;5070469;28;20013;-44
2021/09/16 10:07:55;;;;;;;2.08;1.95;;;;;;;18.21;72.72;100672.06;5070260;28;20035;-44
2021/09/16 10:10:22;;;;;;;2.08;1.95;;;;;;;18.21;72.71;100669.41;5069656;28;20032;-44
2021/09/16 10:12:54;;;;;;;3.97;1.90;;;;;;;18.23;72.61;100670.19;5070368;28;21004;-44
2021/09/16 10:15:22;;;;;;;1.75;1.65;;;;;;;18.23;72.55;100675.50;5070255;28;20024;-44
2021/09/16 10:17:50;;;;;;;3.00;1.65;;;;;;;18.24;72.52;100663.91;5070114;28;20035;-42
2021/09/16 10:20:19;;;;;;;2.60;1.92;;;;;;;18.24;72.63;100671.91;5068722;28;20024;-42
2021/09/16 10:22:47;;;;;;;1.70;1.60;;;;;;;18.26;72.78;100661.16;5051745;28;20154;-42
2021/09/16 10:25:14;;;;;;;3.85;2.10;;;;;;;18.29;72.65;100653.03;5069759;28;20020;-44
2021/09/16 10:27:41;;;;;;;2.35;1.85;;;;;;;18.29;72.81;100661.94;5067703;28;20020;-42
2021/09/16 10:30:22;;;;;;;2.35;1.83;;;;;;;18.28;72.60;100662.84;5069878;28;20017;-43
2021/09/16 10:33:09;;;;;;;2.17;2.00;;;;;;;18.32;72.61;100660.94;5067708;28;20020;-43
2021/09/16 10:35:40;;;;;;;2.10;1.92;;;;;;;18.32;72.58;100659.13;5068152;28;20387;-43
2021/09/16 10:38:36;;;;;;;4.93;1.90;;;;;;;18.32;72.47;100651.13;5068743;28;20477;-42
2021/09/16 10:41:12;;;;;;;1.60;1.50;;;;;;;18.33;72.57;100657.31;5044472;28;20504;-45
2021/09/16 10:43:38;;;;;;;3.65;2.20;;;;;;;18.33;72.45;100660.88;5070064;28;20086;-45
2021/09/16 10:46:35;;;;;;;2.78;2.58;;;;;;;18.33;72.15;100655.53;5056871;28;20473;-45
2021/09/16 10:49:19;;;;;;;2.38;2.17;;;;;;;18.34;72.04;100657.25;5072887;28;20024;-44
2021/09/16 10:51:44;;;;;;;2.50;2.30;;;;;;;18.32;72.15;100661.81;5073281;28;20587;-44
2021/09/16 10:54:33;;;;;;;2.80;2.53;;;;;;;18.33;72.25;100668.88;5054797;28;20031;-43
2021/09/16 10:57:05;;;;;;;2.88;2.67;;;;;;;18.36;71.83;100672.31;5070782;28;20410;-44
2021/09/16 11:00:15;;;;;;;2.58;2.38;;;;;;;18.34;72.06;100665.25;5069713;28;20040;-44
2021/09/16 11:02:43;;;;;;;3.40;3.00;;;;;;;18.34;72.33;100670.59;5072583;28;20024;-44
2021/09/16 11:05:12;;;;;;;2.95;2.75;;;;;;;18.36;72.46;100661.66;5073529;28;20426;-44
2021/09/16 11:07:38;;;;;;;3.65;3.03;;;;;;;18.36;72.17;100662.53;5074187;28;20213;-44
2021/09/16 11:10:13;;;;;;;2.70;2.50;;;;;;;18.38;72.17;100662.47;5070806;28;20517;-44
2021/09/16 11:12:38;;;;;;;3.50;3.20;;;;;;;18.37;72.04;100656.25;5070341;28;20048;-44
2021/09/16 11:15:04;;;;;;;4.03;2.47;;;;;;;18.38;72.10;100659.78;5073640;28;20035;-44
2021/09/16 11:17:29;;;;;;;3.38;2.95;;;;;;;18.38;72.20;100659.78;5073518;28;20040;-42
2021/09/16 11:19:55;;;;;;;2.70;2.50;;;;;;;18.38;72.09;100655.34;5101061;22;20401;-48
2021/09/16 11:22:22;;;;;;;3.13;2.83;;;;;;;18.38;72.17;100659.78;5085888;28;20039;-48
2021/09/16 11:24:50;;;;;;;2.70;2.50;;;;;;;18.39;71.92;100661.53;5088051;28;20038;-47
2021/09/16 11:27:27;;;;;;;3.13;2.85;;;;;;;18.40;71.52;100668.59;5088738;28;20704;-46
2021/09/16 11:29:53;;;;;;;3.05;2.85;;;;;;;18.38;72.00;100676.69;5097426;28;20154;-46